Página principal
METAR-TAF:

METAR-TAF

Aeroportos :

Aeroporto Internacional Ibrahim Nasir

Malé, Maldivas

latitude: 04-12N, longitude: 073-32E, altura: 2 m

Observação actual do tempo

O boletim foi feito há 45 minutos, às 14:00 UTC
Vento 7 kt de norte
Temperatura 29°C
Humidade 79%
Pressão 1011 hPa
Visibilidade: 7000 m
Poucas nuvensa uma altura de 1800 ft

METAR: VRMM 171400Z 36007KT 7000 FEW018 29/25 Q1011 NOSIG

Hora: 19:45 (14:45 UTC)

Previsão

O boletim foi feito há 3 horas e 45 minutos, às 11:00 UTC
Previsão válida de 17 às 12 UTC a 18 às 18 UTC
Vento 9 kt de es-nordeste
Visibilidade 10 km ou mais
Poucas nuvensa uma altura de 1800 ft
Temporariamente
de 17 às 14 UTC a 17 às 20 UTC
Visibilidade: 5000 m
Poucas nuvensa uma altura de 1800 ft, Cumulonimbus.
trovoada, chuva fraca

TAF: VRMM 171100Z 1712/1818 07009KT 9999 FEW018 TEMPO 1714/1720 5000 -TSRA FEW018CB

Observações e previsões do tempo de mais de 4000 aeroportos (mensagens METAR e TAF).

As estações disponíveis são os pontos amarelos e vermelhos sobre o mapa.

Mova o rato sobre o mapa para ver o nome da estação.

Depois clique no ponto para visualizar as observações e previsões meteorológicas.

Para alterar o mapa : clique nos botões verdes com uma cruz preta para aumentar o zoom; no botão verde com uma pitada de zoom; ou nas setas verdes para mapas adjacentes.


METAR-TAF: